createdAt,value
2018-05-31T00:00:49.612Z,0
2018-05-31T00:01:49.896Z,0
2018-05-31T00:02:49.340Z,0
2018-05-31T00:03:49.599Z,0
2018-05-31T00:04:49.326Z,0
2018-05-31T00:05:49.035Z,0
2018-05-31T00:06:49.292Z,0
2018-05-31T00:07:49.725Z,0
2018-05-31T00:08:49.832Z,0
2018-05-31T00:09:49.551Z,0
2018-05-31T00:10:49.275Z,0
2018-05-31T00:11:49.788Z,0
2018-05-31T00:12:49.817Z,0
2018-05-31T00:13:48.973Z,0
2018-05-31T00:14:49.511Z,0
2018-05-31T00:15:49.837Z,0
2018-05-31T00:16:49.572Z,0
2018-05-31T00:17:49.481Z,0
2018-05-31T00:18:49.487Z,0
2018-05-31T00:19:49.468Z,0
2018-05-31T00:20:49.728Z,0
2018-05-31T00:21:49.444Z,0
2018-05-31T00:22:48.890Z,0
2018-05-31T00:23:49.750Z,0
2018-05-31T00:24:49.713Z,0
2018-05-31T00:25:49.837Z,0
2018-05-31T00:26:49.406Z,0
2018-05-31T00:27:49.690Z,0
2018-05-31T00:28:49.402Z,0
2018-05-31T00:29:49.394Z,0
2018-05-31T00:30:49.693Z,0
2018-05-31T00:31:49.372Z,0
2018-05-31T00:32:49.374Z,0
2018-05-31T00:33:48.799Z,0
2018-05-31T00:34:50.062Z,0
2018-05-31T00:35:49.064Z,0
2018-05-31T00:36:49.250Z,0
2018-05-31T00:37:49.315Z,0
2018-05-31T00:38:49.031Z,0
2018-05-31T00:39:49.368Z,0
2018-05-31T00:40:49.272Z,0
2018-05-31T00:41:49.583Z,0
2018-05-31T00:42:49.266Z,0
2018-05-31T00:43:50.266Z,0
2018-05-31T00:44:49.519Z,0
2018-05-31T00:45:49.248Z,0
2018-05-31T00:46:49.241Z,0
2018-05-31T00:47:48.667Z,0
2018-05-31T00:48:49.472Z,0
2018-05-31T00:49:48.944Z,0
2018-05-31T00:50:48.973Z,0
2018-05-31T00:51:49.461Z,0
2018-05-31T00:52:49.224Z,0
2018-05-31T00:53:49.489Z,0
2018-05-31T00:54:49.175Z,0
2018-05-31T00:55:49.168Z,0
2018-05-31T00:56:48.865Z,0
2018-05-31T00:57:49.121Z,0
2018-05-31T00:58:48.578Z,0
2018-05-31T00:59:49.127Z,0
2018-05-31T01:00:49.116Z,0
2018-05-31T01:01:48.875Z,0
2018-05-31T01:02:48.920Z,0
2018-05-31T01:03:49.106Z,0
2018-05-31T01:04:49.076Z,0
2018-05-31T01:05:48.561Z,0
2018-05-31T01:06:48.515Z,0
2018-05-31T01:07:49.061Z,0
2018-05-31T01:08:49.325Z,0
2018-05-31T01:09:49.070Z,0
2018-05-31T01:10:49.515Z,0
2018-05-31T01:11:48.470Z,0
2018-05-31T01:12:49.009Z,0
2018-05-31T01:13:49.295Z,0
2018-05-31T01:14:49.000Z,0
2018-05-31T01:15:48.707Z,0
2018-05-31T01:16:48.740Z,0
2018-05-31T01:17:48.681Z,0
2018-05-31T01:18:48.411Z,0
2018-05-31T01:19:48.933Z,0
2018-05-31T01:20:49.505Z,0
2018-05-31T01:21:48.652Z,0
2018-05-31T01:22:48.909Z,0
2018-05-31T01:23:48.627Z,0
2018-05-31T01:24:48.899Z,0
2018-05-31T01:25:48.603Z,0
2018-05-31T01:26:48.612Z,0
2018-05-31T01:27:49.205Z,0
2018-05-31T01:28:48.588Z,0
2018-05-31T01:29:50.138Z,0
2018-05-31T01:30:48.569Z,0
2018-05-31T01:31:48.293Z,0
2018-05-31T01:32:48.549Z,0
2018-05-31T01:33:48.547Z,0
2018-05-31T01:34:48.527Z,0
2018-05-31T01:35:48.801Z,0
2018-05-31T01:36:48.514Z,0
2018-05-31T01:37:48.235Z,0
2018-05-31T01:38:49.793Z,0
2018-05-31T01:39:49.279Z,0
2018-05-31T01:40:48.773Z,0
2018-05-31T01:41:48.199Z,0
2018-05-31T01:42:48.174Z,0
2018-05-31T01:43:48.444Z,0
2018-05-31T01:44:48.436Z,0
2018-05-31T01:45:48.454Z,0
2018-05-31T01:46:48.689Z,0
2018-05-31T01:47:48.759Z,0
2018-05-31T01:48:49.593Z,0
2018-05-31T01:49:48.667Z,0
2018-05-31T01:50:48.401Z,0
2018-05-31T01:51:48.373Z,0
2018-05-31T01:52:48.372Z,0
2018-05-31T01:53:48.080Z,0
2018-05-31T01:54:48.345Z,0
2018-05-31T01:55:48.872Z,0
2018-05-31T01:56:49.145Z,0
2018-05-31T01:57:48.819Z,0
2018-05-31T01:58:48.897Z,0
2018-05-31T01:59:48.867Z,0
2018-05-31T02:00:48.569Z,0
2018-05-31T02:01:47.999Z,0
2018-05-31T02:02:48.267Z,0
2018-05-31T02:03:47.706Z,0
2018-05-31T02:04:48.245Z,0
2018-05-31T02:05:48.697Z,0
2018-05-31T02:06:48.833Z,0
2018-05-31T02:07:48.813Z,0
2018-05-31T02:08:48.241Z,0
2018-05-31T02:09:48.225Z,0
2018-05-31T02:10:48.459Z,0
2018-05-31T02:11:48.458Z,0
2018-05-31T02:12:48.183Z,0
2018-05-31T02:13:48.732Z,0
2018-05-31T02:14:49.049Z,0
2018-05-31T02:15:48.152Z,0
2018-05-31T02:16:47.591Z,0
2018-05-31T02:17:47.589Z,0
2018-05-31T02:18:48.386Z,0
2018-05-31T02:19:47.833Z,0
2018-05-31T02:20:48.108Z,0
2018-05-31T02:21:47.821Z,0
2018-05-31T02:22:48.078Z,0
2018-05-31T02:23:48.083Z,0
2018-05-31T02:24:49.381Z,0
2018-05-31T02:25:48.323Z,0
2018-05-31T02:26:48.072Z,0
2018-05-31T02:27:48.606Z,0
2018-05-31T02:28:48.049Z,0
2018-05-31T02:29:47.743Z,0
2018-05-31T02:30:48.045Z,0
2018-05-31T02:31:48.261Z,0
2018-05-31T02:32:48.402Z,0
2018-05-31T02:33:49.145Z,0
2018-05-31T02:34:48.035Z,0
2018-05-31T02:35:47.959Z,0
2018-05-31T02:36:48.430Z,0
2018-05-31T02:37:47.980Z,0
2018-05-31T02:38:47.938Z,0
2018-05-31T02:39:48.211Z,0
2018-05-31T02:40:47.632Z,0
2018-05-31T02:41:47.913Z,0
2018-05-31T02:42:48.534Z,0
2018-05-31T02:43:47.891Z,0
2018-05-31T02:44:47.884Z,0
2018-05-31T02:45:47.874Z,0
2018-05-31T02:46:47.864Z,0
2018-05-31T02:47:48.400Z,0
2018-05-31T02:48:48.127Z,0
2018-05-31T02:49:48.154Z,0
2018-05-31T02:50:48.095Z,0
2018-05-31T02:51:49.218Z,0
2018-05-31T02:52:47.821Z,0
2018-05-31T02:53:47.565Z,0
2018-05-31T02:54:47.784Z,0
2018-05-31T02:55:48.067Z,0
2018-05-31T02:56:48.063Z,0
2018-05-31T02:57:47.757Z,0
2018-05-31T02:58:47.740Z,0
2018-05-31T02:59:47.743Z,0
2018-05-31T03:00:48.139Z,0
2018-05-31T03:01:47.729Z,0
2018-05-31T03:02:47.706Z,0
2018-05-31T03:03:47.980Z,0
2018-05-31T03:04:47.428Z,0
2018-05-31T03:05:47.947Z,0
2018-05-31T03:06:47.930Z,0
2018-05-31T03:07:47.839Z,0
2018-05-31T03:08:48.235Z,0
2018-05-31T03:09:48.944Z,0
2018-05-31T03:10:47.350Z,0
2018-05-31T03:11:47.902Z,0
2018-05-31T03:12:47.628Z,0
2018-05-31T03:13:47.334Z,0
2018-05-31T03:14:48.151Z,0
2018-05-31T03:15:47.577Z,0
2018-05-31T03:16:47.571Z,0
2018-05-31T03:17:47.028Z,0
2018-05-31T03:18:49.554Z,5
2018-05-31T03:19:47.548Z,5
2018-05-31T03:20:47.543Z,5
2018-05-31T03:21:48.134Z,5
2018-05-31T03:22:47.524Z,5
2018-05-31T03:23:47.782Z,5
2018-05-31T03:24:47.774Z,5
2018-05-31T03:25:47.789Z,5
2018-05-31T03:26:47.210Z,5
2018-05-31T03:27:47.979Z,5
2018-05-31T03:28:47.731Z,5
2018-05-31T03:29:47.491Z,5
2018-05-31T03:30:47.444Z,5
2018-05-31T03:31:48.090Z,5
2018-05-31T03:32:47.726Z,10
2018-05-31T03:33:47.213Z,10
2018-05-31T03:34:47.706Z,10
2018-05-31T03:35:47.667Z,10
2018-05-31T03:36:48.772Z,10
2018-05-31T03:37:47.101Z,10
2018-05-31T03:38:47.935Z,10
2018-05-31T03:39:47.359Z,10
2018-05-31T03:40:47.558Z,15
2018-05-31T03:41:47.339Z,15
2018-05-31T03:42:47.881Z,15
2018-05-31T03:43:47.316Z,15
2018-05-31T03:44:47.656Z,15
2018-05-31T03:45:48.910Z,15
2018-05-31T03:46:47.552Z,15
2018-05-31T03:47:47.375Z,15
2018-05-31T03:48:46.730Z,15
2018-05-31T03:49:47.536Z,15
2018-05-31T03:50:47.454Z,15
2018-05-31T03:51:47.791Z,15
2018-05-31T03:52:47.521Z,20
2018-05-31T03:53:47.962Z,20
2018-05-31T03:54:47.571Z,20
2018-05-31T03:55:47.512Z,20
2018-05-31T03:56:47.455Z,20
2018-05-31T03:57:47.460Z,20
2018-05-31T03:58:47.461Z,20
2018-05-31T03:59:47.160Z,20
2018-05-31T04:00:47.158Z,20
2018-05-31T04:01:47.156Z,25
2018-05-31T04:02:47.852Z,25
2018-05-31T04:03:48.797Z,25
2018-05-31T04:04:47.114Z,25
2018-05-31T04:05:47.400Z,25
2018-05-31T04:06:47.388Z,25
2018-05-31T04:07:47.361Z,30
2018-05-31T04:08:47.088Z,30
2018-05-31T04:09:47.622Z,30
2018-05-31T04:10:47.342Z,30
2018-05-31T04:11:47.210Z,30
2018-05-31T04:12:48.065Z,30
2018-05-31T04:13:46.754Z,30
2018-05-31T04:14:46.778Z,30
2018-05-31T04:15:47.278Z,30
2018-05-31T04:16:47.279Z,30
2018-05-31T04:17:47.277Z,30
2018-05-31T04:18:46.985Z,35
2018-05-31T04:19:46.978Z,35
2018-05-31T04:20:47.017Z,35
2018-05-31T04:21:47.993Z,35
2018-05-31T04:22:46.957Z,35
2018-05-31T04:23:47.490Z,35
2018-05-31T04:24:47.485Z,35
2018-05-31T04:25:47.199Z,35
2018-05-31T04:26:47.202Z,35
2018-05-31T04:27:47.197Z,35
2018-05-31T04:28:46.908Z,35
2018-05-31T04:29:47.359Z,40
2018-05-31T04:30:46.604Z,40
2018-05-31T04:31:47.136Z,40
2018-05-31T04:32:46.867Z,40
2018-05-31T04:33:47.445Z,40
2018-05-31T04:34:47.393Z,45
2018-05-31T04:35:46.851Z,45
2018-05-31T04:36:46.750Z,45
2018-05-31T04:37:46.844Z,45
2018-05-31T04:38:46.556Z,45
2018-05-31T04:39:48.095Z,45
2018-05-31T04:40:46.843Z,50
2018-05-31T04:41:46.769Z,50
2018-05-31T04:42:47.044Z,55
2018-05-31T04:43:47.297Z,55
2018-05-31T04:44:47.335Z,55
2018-05-31T04:45:47.006Z,55
2018-05-31T04:46:46.748Z,55
2018-05-31T04:47:47.467Z,55
2018-05-31T04:48:47.101Z,60
2018-05-31T04:49:46.974Z,55
2018-05-31T04:50:47.252Z,55
2018-05-31T04:51:46.418Z,55
2018-05-31T04:52:46.406Z,55
2018-05-31T04:53:46.956Z,55
2018-05-31T04:54:46.933Z,55
2018-05-31T04:55:46.650Z,55
2018-05-31T04:56:47.356Z,55
2018-05-31T04:57:46.082Z,55
2018-05-31T04:58:46.612Z,55
2018-05-31T04:59:46.611Z,50
2018-05-31T05:00:46.711Z,50
2018-05-31T05:01:46.880Z,55
2018-05-31T05:02:46.331Z,55
2018-05-31T05:03:46.579Z,55
2018-05-31T05:04:46.568Z,55
2018-05-31T05:05:47.318Z,60
2018-05-31T05:06:47.323Z,60
2018-05-31T05:07:46.828Z,60
2018-05-31T05:08:46.540Z,60
2018-05-31T05:09:46.844Z,65
2018-05-31T05:10:46.527Z,65
2018-05-31T05:11:47.070Z,70
2018-05-31T05:12:46.766Z,70
2018-05-31T05:13:47.051Z,75
2018-05-31T05:14:47.023Z,80
2018-05-31T05:15:47.936Z,80
2018-05-31T05:16:46.786Z,75
2018-05-31T05:17:46.498Z,75
2018-05-31T05:18:46.733Z,75
2018-05-31T05:19:47.012Z,80
2018-05-31T05:20:46.432Z,80
2018-05-31T05:21:46.702Z,80
2018-05-31T05:22:46.697Z,75
2018-05-31T05:23:47.002Z,75
2018-05-31T05:24:47.952Z,75
2018-05-31T05:25:46.401Z,75
2018-05-31T05:26:46.397Z,70
2018-05-31T05:27:46.931Z,70
2018-05-31T05:28:46.089Z,70
2018-05-31T05:29:46.351Z,75
2018-05-31T05:30:46.068Z,75
2018-05-31T05:31:46.385Z,70
2018-05-31T05:32:46.058Z,75
2018-05-31T05:33:47.173Z,75
2018-05-31T05:34:46.630Z,75
2018-05-31T05:35:46.577Z,75
2018-05-31T05:36:46.565Z,75
2018-05-31T05:37:46.578Z,75
2018-05-31T05:38:46.604Z,75
2018-05-31T05:39:45.991Z,75
2018-05-31T05:40:46.252Z,70
2018-05-31T05:41:46.832Z,70
2018-05-31T05:42:47.635Z,70
2018-05-31T05:43:46.619Z,70
2018-05-31T05:44:46.225Z,65
2018-05-31T05:45:46.766Z,70
2018-05-31T05:46:46.493Z,70
2018-05-31T05:47:45.922Z,65
2018-05-31T05:48:46.462Z,70
2018-05-31T05:49:45.641Z,70
2018-05-31T05:50:45.920Z,70
2018-05-31T05:51:47.039Z,70
2018-05-31T05:52:46.218Z,70
2018-05-31T05:53:46.416Z,70
2018-05-31T05:54:46.153Z,70
2018-05-31T05:55:46.709Z,70
2018-05-31T05:56:46.434Z,75
2018-05-31T05:57:45.859Z,75
2018-05-31T05:58:46.376Z,75
2018-05-31T05:59:46.661Z,75
2018-05-31T06:00:46.847Z,80
2018-05-31T06:01:46.132Z,80
2018-05-31T06:02:46.086Z,80
2018-05-31T06:03:46.073Z,85
2018-05-31T06:04:46.060Z,85
2018-05-31T06:05:46.372Z,85
2018-05-31T06:06:46.312Z,90
2018-05-31T06:07:46.405Z,115
2018-05-31T06:08:46.758Z,185
2018-05-31T06:09:45.797Z,280
2018-05-31T06:10:46.006Z,285
2018-05-31T06:11:46.594Z,230
2018-05-31T06:12:45.735Z,150
2018-05-31T06:13:45.997Z,175
2018-05-31T06:14:46.266Z,290
2018-05-31T06:15:46.258Z,310
2018-05-31T06:16:46.599Z,310
2018-05-31T06:17:48.022Z,170
2018-05-31T06:18:45.946Z,120
2018-05-31T06:19:46.420Z,120
2018-05-31T06:20:45.936Z,120
2018-05-31T06:21:46.199Z,125
2018-05-31T06:22:45.929Z,130
2018-05-31T06:23:45.906Z,130
2018-05-31T06:24:46.646Z,135
2018-05-31T06:25:46.829Z,135
2018-05-31T06:26:47.340Z,135
2018-05-31T06:27:46.463Z,135
2018-05-31T06:28:46.350Z,140
2018-05-31T06:29:46.201Z,140
2018-05-31T06:30:46.169Z,140
2018-05-31T06:31:46.126Z,135
2018-05-31T06:32:45.315Z,135
2018-05-31T06:33:45.852Z,135
2018-05-31T06:34:46.085Z,135
2018-05-31T06:35:45.822Z,135
2018-05-31T06:36:46.573Z,135
2018-05-31T06:37:46.071Z,135
2018-05-31T06:38:45.848Z,135
2018-05-31T06:39:46.052Z,130
2018-05-31T06:40:46.052Z,130
2018-05-31T06:41:46.034Z,130
2018-05-31T06:42:46.087Z,125
2018-05-31T06:43:45.499Z,125
2018-05-31T06:44:46.026Z,125
2018-05-31T06:45:46.024Z,130
2018-05-31T06:46:46.008Z,200
2018-05-31T06:47:46.309Z,300
2018-05-31T06:48:46.262Z,340
2018-05-31T06:49:46.253Z,335
2018-05-31T06:50:46.257Z,265
2018-05-31T06:51:45.983Z,225
2018-05-31T06:52:45.967Z,240
2018-05-31T06:53:45.957Z,265
2018-05-31T06:54:46.223Z,275
2018-05-31T06:55:45.411Z,210
2018-05-31T06:56:45.949Z,140
2018-05-31T06:57:45.666Z,130
2018-05-31T06:58:45.944Z,135
2018-05-31T06:59:45.865Z,130
2018-05-31T07:00:45.934Z,130
2018-05-31T07:01:45.376Z,145
2018-05-31T07:02:45.904Z,155
2018-05-31T07:03:46.091Z,165
2018-05-31T07:04:45.659Z,180
2018-05-31T07:05:45.832Z,185
2018-05-31T07:06:45.883Z,180
2018-05-31T07:07:45.605Z,155
2018-05-31T07:08:45.666Z,155
2018-05-31T07:09:45.867Z,160
2018-05-31T07:10:45.581Z,170
2018-05-31T07:11:45.839Z,180
2018-05-31T07:12:45.832Z,155
2018-05-31T07:13:45.312Z,150
2018-05-31T07:14:45.301Z,150
2018-05-31T07:15:45.568Z,155
2018-05-31T07:16:45.836Z,160
2018-05-31T07:17:45.538Z,155
2018-05-31T07:18:45.801Z,155
2018-05-31T07:19:45.798Z,160
2018-05-31T07:20:46.059Z,160
2018-05-31T07:21:45.875Z,175
2018-05-31T07:22:45.780Z,190
2018-05-31T07:23:45.769Z,185
2018-05-31T07:24:46.083Z,200
2018-05-31T07:25:45.753Z,425
2018-05-31T07:26:45.224Z,750
2018-05-31T07:27:46.013Z,880
2018-05-31T07:28:45.474Z,915
2018-05-31T07:29:45.206Z,945
2018-05-31T07:30:45.732Z,980
2018-05-31T07:31:45.729Z,970
2018-05-31T07:32:45.723Z,980
2018-05-31T07:33:45.720Z,990
2018-05-31T07:34:45.729Z,1025
2018-05-31T07:35:45.990Z,1045
2018-05-31T07:36:45.976Z,1055
2018-05-31T07:37:45.441Z,1065
2018-05-31T07:38:45.923Z,1085
2018-05-31T07:39:45.699Z,1120
2018-05-31T07:40:45.693Z,1165
2018-05-31T07:41:45.691Z,835
2018-05-31T07:42:45.688Z,930
2018-05-31T07:43:45.695Z,805
2018-05-31T07:44:45.695Z,635
2018-05-31T07:45:45.704Z,980
2018-05-31T07:46:44.886Z,600
2018-05-31T07:47:45.699Z,500
2018-05-31T07:48:45.417Z,430
2018-05-31T07:49:45.674Z,930
2018-05-31T07:50:45.479Z,1030
2018-05-31T07:51:45.898Z,490
2018-05-31T07:52:45.631Z,380
2018-05-31T07:53:45.425Z,360
2018-05-31T07:54:45.400Z,380
2018-05-31T07:55:45.406Z,500
2018-05-31T07:56:45.395Z,740
2018-05-31T07:57:45.657Z,880
2018-05-31T07:58:45.658Z,725
2018-05-31T07:59:45.146Z,725
2018-05-31T08:00:45.720Z,770
2018-05-31T08:01:45.391Z,1105
2018-05-31T08:02:45.120Z,1090
2018-05-31T08:03:45.385Z,400
2018-05-31T08:04:45.381Z,420
2018-05-31T08:05:45.782Z,810
2018-05-31T08:06:45.106Z,750
2018-05-31T08:07:45.372Z,430
2018-05-31T08:08:45.419Z,410
2018-05-31T08:09:45.368Z,380
2018-05-31T08:10:45.381Z,440
2018-05-31T08:11:44.840Z,490
2018-05-31T08:12:45.626Z,460
2018-05-31T08:13:45.672Z,445
2018-05-31T08:14:45.108Z,430
2018-05-31T08:15:45.634Z,450
2018-05-31T08:16:45.626Z,630
2018-05-31T08:17:45.345Z,900
2018-05-31T08:18:45.617Z,1135
2018-05-31T08:19:45.347Z,1100
2018-05-31T08:20:45.137Z,1165
2018-05-31T08:21:45.616Z,1310
2018-05-31T08:22:45.345Z,1090
2018-05-31T08:23:45.386Z,1430
2018-05-31T08:24:45.606Z,770
2018-05-31T08:25:45.343Z,550
2018-05-31T08:26:45.348Z,790
2018-05-31T08:27:45.599Z,480
2018-05-31T08:28:45.671Z,575
2018-05-31T08:29:45.335Z,490
2018-05-31T08:30:45.883Z,425
2018-05-31T08:31:46.479Z,385
2018-05-31T08:32:45.595Z,420
2018-05-31T08:33:44.812Z,360
2018-05-31T08:34:45.327Z,335
2018-05-31T08:35:45.855Z,335
2018-05-31T08:36:46.066Z,375
2018-05-31T08:37:45.325Z,390
2018-05-31T08:38:45.061Z,615
2018-05-31T08:39:45.584Z,575
2018-05-31T08:40:45.597Z,730
2018-05-31T08:41:45.849Z,840
2018-05-31T08:42:45.315Z,750
2018-05-31T08:43:45.312Z,570
2018-05-31T08:44:45.579Z,450
2018-05-31T08:45:45.079Z,415
2018-05-31T08:46:45.841Z,415
2018-05-31T08:47:45.570Z,410
2018-05-31T08:48:45.317Z,420
2018-05-31T08:49:45.574Z,440
2018-05-31T08:50:45.838Z,430
2018-05-31T08:51:45.316Z,410
2018-05-31T08:52:45.576Z,405
2018-05-31T08:53:45.574Z,390
2018-05-31T08:54:45.581Z,370
2018-05-31T08:55:45.299Z,370
2018-05-31T08:56:45.549Z,380
2018-05-31T08:57:46.029Z,405
2018-05-31T08:58:45.824Z,425
2018-05-31T08:59:45.023Z,410
2018-05-31T09:00:45.290Z,395
2018-05-31T09:01:45.278Z,430
2018-05-31T09:02:45.550Z,500
2018-05-31T09:03:45.276Z,500
2018-05-31T09:04:45.803Z,490
2018-05-31T09:05:45.283Z,570
2018-05-31T09:06:45.275Z,695
2018-05-31T09:07:45.541Z,900
2018-05-31T09:08:45.535Z,915
2018-05-31T09:09:45.844Z,770
2018-05-31T09:10:45.543Z,970
2018-05-31T09:11:45.256Z,675
2018-05-31T09:12:45.020Z,840
2018-05-31T09:13:45.784Z,1165
2018-05-31T09:14:45.251Z,1265
2018-05-31T09:15:45.783Z,1140
2018-05-31T09:16:45.516Z,1265
2018-05-31T09:17:45.248Z,890
2018-05-31T09:18:45.509Z,785
2018-05-31T09:19:45.559Z,685
2018-05-31T09:20:45.515Z,570
2018-05-31T09:21:44.968Z,580
2018-05-31T09:22:45.500Z,620
2018-05-31T09:23:44.974Z,560
2018-05-31T09:24:45.773Z,475
2018-05-31T09:25:45.237Z,480
2018-05-31T09:26:45.242Z,555
2018-05-31T09:27:45.494Z,730
2018-05-31T09:28:45.535Z,585
2018-05-31T09:29:45.282Z,465
2018-05-31T09:30:45.230Z,440
2018-05-31T09:31:44.970Z,470
2018-05-31T09:32:44.963Z,470
2018-05-31T09:33:45.760Z,485
2018-05-31T09:34:45.489Z,445
2018-05-31T09:35:45.777Z,455
2018-05-31T09:36:45.760Z,480
2018-05-31T09:37:45.223Z,575
2018-05-31T09:38:45.234Z,795
2018-05-31T09:39:44.955Z,555
2018-05-31T09:40:45.752Z,410
2018-05-31T09:41:45.765Z,435
2018-05-31T09:42:45.751Z,465
2018-05-31T09:43:44.951Z,490
2018-05-31T09:44:45.761Z,505
2018-05-31T09:45:45.213Z,530
2018-05-31T09:46:45.262Z,540
2018-05-31T09:47:44.950Z,560
2018-05-31T09:48:45.212Z,605
2018-05-31T09:49:45.470Z,765
2018-05-31T09:50:45.221Z,630
2018-05-31T09:51:44.936Z,535
2018-05-31T09:52:45.744Z,515
2018-05-31T09:53:45.467Z,505
2018-05-31T09:54:45.213Z,495
2018-05-31T09:55:45.209Z,480
2018-05-31T09:56:45.501Z,460
2018-05-31T09:57:45.504Z,440
2018-05-31T09:58:45.497Z,420
2018-05-31T09:59:45.734Z,420
2018-05-31T10:00:45.463Z,420
2018-05-31T10:01:45.550Z,415
2018-05-31T10:02:45.466Z,425
2018-05-31T10:03:45.473Z,430
2018-05-31T10:04:45.449Z,460
2018-05-31T10:05:44.919Z,490
2018-05-31T10:06:44.921Z,490
2018-05-31T10:07:45.430Z,570
2018-05-31T10:08:44.959Z,580
2018-05-31T10:09:45.712Z,535
2018-05-31T10:10:45.463Z,650
2018-05-31T10:11:45.445Z,600
2018-05-31T10:12:44.917Z,725
2018-05-31T10:13:45.702Z,835
2018-05-31T10:14:45.443Z,960
2018-05-31T10:15:45.169Z,1350
2018-05-31T10:16:45.437Z,1315
2018-05-31T10:17:44.913Z,1145
2018-05-31T10:18:45.721Z,1095
2018-05-31T10:19:44.964Z,1110
2018-05-31T10:20:44.900Z,1380
2018-05-31T10:21:45.697Z,1875
2018-05-31T10:22:45.173Z,1880
2018-05-31T10:23:45.175Z,1890
2018-05-31T10:24:45.505Z,1920
2018-05-31T10:25:45.433Z,1950
2018-05-31T10:26:45.478Z,1945
2018-05-31T10:27:45.191Z,1915
2018-05-31T10:28:45.719Z,1875
2018-05-31T10:29:45.735Z,1870
2018-05-31T10:30:45.728Z,1860
2018-05-31T10:31:45.222Z,1835
2018-05-31T10:32:45.476Z,1815
2018-05-31T10:33:45.219Z,1800
2018-05-31T10:34:45.747Z,1815
2018-05-31T10:35:45.486Z,1680
2018-05-31T10:36:45.894Z,1720
2018-05-31T10:37:45.279Z,1780
2018-05-31T10:38:44.706Z,1680
2018-05-31T10:39:45.499Z,1635
2018-05-31T10:40:45.230Z,1810
2018-05-31T10:41:45.247Z,1825
2018-05-31T10:42:45.256Z,1760
2018-05-31T10:43:45.582Z,1830
2018-05-31T10:44:44.993Z,1875
2018-05-31T10:45:45.793Z,1855
2018-05-31T10:46:45.331Z,1805
2018-05-31T10:47:45.280Z,1645
2018-05-31T10:48:45.552Z,1660
2018-05-31T10:49:45.551Z,1735
2018-05-31T10:50:45.833Z,1800
2018-05-31T10:51:45.826Z,1865
2018-05-31T10:52:45.580Z,1875
2018-05-31T10:53:45.924Z,1800
2018-05-31T10:54:45.316Z,1775
2018-05-31T10:55:45.879Z,1680
2018-05-31T10:56:45.322Z,1650
2018-05-31T10:57:45.338Z,1670
2018-05-31T10:58:45.350Z,1700
2018-05-31T10:59:45.085Z,465
2018-05-31T11:00:45.083Z,405
2018-05-31T11:01:45.920Z,395
2018-05-31T11:02:45.374Z,410
2018-05-31T11:03:45.641Z,400
2018-05-31T11:04:45.963Z,415
2018-05-31T11:05:45.675Z,520
2018-05-31T11:06:45.660Z,1675
2018-05-31T11:07:45.150Z,1780
2018-05-31T11:08:45.859Z,1815
2018-05-31T11:09:45.740Z,1810
2018-05-31T11:10:45.419Z,1810
2018-05-31T11:11:45.416Z,1885
2018-05-31T11:12:45.693Z,1840
2018-05-31T11:13:45.691Z,1820
2018-05-31T11:14:45.697Z,1730
2018-05-31T11:15:45.180Z,1635
2018-05-31T11:16:45.980Z,1585
2018-05-31T11:17:45.759Z,925
2018-05-31T11:18:45.734Z,905
2018-05-31T11:19:45.730Z,1545
2018-05-31T11:20:45.226Z,1805
2018-05-31T11:21:46.067Z,1765
2018-05-31T11:22:45.492Z,1620
2018-05-31T11:23:45.758Z,1330
2018-05-31T11:24:45.492Z,1565
2018-05-31T11:25:45.762Z,1775
2018-05-31T11:26:45.509Z,1860
2018-05-31T11:27:45.786Z,1635
2018-05-31T11:28:45.797Z,1205
2018-05-31T11:29:45.263Z,1915
2018-05-31T11:30:45.534Z,550
2018-05-31T11:31:45.807Z,385
2018-05-31T11:32:45.276Z,325
2018-05-31T11:33:46.083Z,285
2018-05-31T11:34:46.283Z,260
2018-05-31T11:35:45.567Z,250
2018-05-31T11:36:45.846Z,265
2018-05-31T11:37:45.589Z,305
2018-05-31T11:38:46.121Z,360
2018-05-31T11:39:45.332Z,420
2018-05-31T11:40:45.334Z,1155
2018-05-31T11:41:46.390Z,1615
2018-05-31T11:42:45.622Z,1785
2018-05-31T11:43:45.621Z,650
2018-05-31T11:44:45.898Z,595
2018-05-31T11:45:45.887Z,890
2018-05-31T11:46:45.646Z,1445
2018-05-31T11:47:45.645Z,1625
2018-05-31T11:48:45.901Z,480
2018-05-31T11:49:45.638Z,525
2018-05-31T11:50:45.387Z,1660
2018-05-31T11:51:45.149Z,1595
2018-05-31T11:52:45.659Z,1165
2018-05-31T11:53:46.209Z,390
2018-05-31T11:54:45.944Z,325
2018-05-31T11:55:45.675Z,300
2018-05-31T11:56:45.404Z,285
2018-05-31T11:57:45.674Z,265
2018-05-31T11:58:45.680Z,270
2018-05-31T11:59:45.725Z,270
2018-05-31T12:00:46.053Z,265
2018-05-31T12:01:45.814Z,275
2018-05-31T12:02:45.828Z,240
2018-05-31T12:03:46.041Z,215
2018-05-31T12:04:46.248Z,205
2018-05-31T12:05:45.700Z,200
2018-05-31T12:06:45.451Z,195
2018-05-31T12:07:45.982Z,190
2018-05-31T12:08:46.024Z,200
2018-05-31T12:09:45.715Z,220
2018-05-31T12:10:46.030Z,275
2018-05-31T12:11:45.716Z,330
2018-05-31T12:12:45.454Z,365
2018-05-31T12:13:45.731Z,420
2018-05-31T12:14:45.746Z,650
2018-05-31T12:15:45.989Z,980
2018-05-31T12:16:45.465Z,550
2018-05-31T12:17:46.506Z,495
2018-05-31T12:18:45.730Z,655
2018-05-31T12:19:46.265Z,930
2018-05-31T12:20:46.007Z,870
2018-05-31T12:21:46.005Z,985
2018-05-31T12:22:45.483Z,935
2018-05-31T12:23:45.996Z,870
2018-05-31T12:24:46.012Z,800
2018-05-31T12:25:45.993Z,685
2018-05-31T12:26:46.017Z,655
2018-05-31T12:27:45.789Z,620
2018-05-31T12:28:46.273Z,570
2018-05-31T12:29:46.000Z,520
2018-05-31T12:30:46.283Z,495
2018-05-31T12:31:45.762Z,490
2018-05-31T12:32:45.758Z,485
2018-05-31T12:33:46.006Z,490
2018-05-31T12:34:45.754Z,465
2018-05-31T12:35:46.014Z,445
2018-05-31T12:36:46.428Z,420
2018-05-31T12:37:46.235Z,395
2018-05-31T12:38:46.034Z,380
2018-05-31T12:39:45.759Z,360
2018-05-31T12:40:45.780Z,345
2018-05-31T12:41:45.758Z,335
2018-05-31T12:42:46.030Z,325
2018-05-31T12:43:46.293Z,310
2018-05-31T12:44:45.771Z,300
2018-05-31T12:45:45.762Z,290
2018-05-31T12:46:46.043Z,285
2018-05-31T12:47:45.823Z,275
2018-05-31T12:48:45.775Z,265
2018-05-31T12:49:45.235Z,260
2018-05-31T12:50:45.503Z,245
2018-05-31T12:51:46.023Z,245
2018-05-31T12:52:45.811Z,240
2018-05-31T12:53:45.864Z,235
2018-05-31T12:54:46.038Z,230
2018-05-31T12:55:45.759Z,230
2018-05-31T12:56:45.772Z,225
2018-05-31T12:57:45.779Z,215
2018-05-31T12:58:46.072Z,210
2018-05-31T12:59:45.767Z,205
2018-05-31T13:00:45.506Z,200
2018-05-31T13:01:46.286Z,190
2018-05-31T13:02:46.039Z,185
2018-05-31T13:03:45.768Z,180
2018-05-31T13:04:46.033Z,175
2018-05-31T13:05:46.233Z,170
2018-05-31T13:06:46.033Z,170
2018-05-31T13:07:45.755Z,165
2018-05-31T13:08:46.025Z,165
2018-05-31T13:09:46.018Z,160
2018-05-31T13:10:45.524Z,155
2018-05-31T13:11:45.551Z,150
2018-05-31T13:12:45.769Z,150
2018-05-31T13:13:45.826Z,145
2018-05-31T13:14:45.754Z,140
2018-05-31T13:15:46.023Z,140
2018-05-31T13:16:46.020Z,135
2018-05-31T13:17:45.831Z,135
2018-05-31T13:18:46.544Z,130
2018-05-31T13:19:46.270Z,125
2018-05-31T13:20:45.499Z,125
2018-05-31T13:21:45.733Z,125
2018-05-31T13:22:46.041Z,120
2018-05-31T13:23:45.995Z,115
2018-05-31T13:24:45.929Z,115
2018-05-31T13:25:45.728Z,110
2018-05-31T13:26:45.973Z,105
2018-05-31T13:27:45.975Z,105
2018-05-31T13:28:45.755Z,100
2018-05-31T13:29:45.727Z,95
2018-05-31T13:30:45.982Z,95
2018-05-31T13:31:45.723Z,90
2018-05-31T13:32:45.744Z,85
2018-05-31T13:33:45.996Z,85
2018-05-31T13:34:45.766Z,85
2018-05-31T13:35:45.962Z,85
2018-05-31T13:36:45.667Z,80
2018-05-31T13:37:45.686Z,75
2018-05-31T13:38:45.473Z,75
2018-05-31T13:39:45.451Z,70
2018-05-31T13:40:45.684Z,70
2018-05-31T13:41:45.704Z,65
2018-05-31T13:42:45.933Z,65
2018-05-31T13:43:45.401Z,65
2018-05-31T13:44:45.943Z,60
2018-05-31T13:46:45.454Z,60
2018-05-31T13:47:45.950Z,55
2018-05-31T13:48:45.744Z,55
2018-05-31T13:49:45.658Z,55
2018-05-31T13:50:45.667Z,50
2018-05-31T13:51:46.020Z,50
2018-05-31T13:52:45.701Z,50
2018-05-31T13:53:45.377Z,45
2018-05-31T13:54:45.682Z,45
2018-05-31T13:55:45.883Z,45
2018-05-31T13:56:45.660Z,45
2018-05-31T13:57:45.618Z,45
2018-05-31T13:58:45.618Z,45
2018-05-31T13:59:45.872Z,45
2018-05-31T14:00:45.867Z,45
2018-05-31T14:01:45.594Z,45
2018-05-31T14:02:46.150Z,40
2018-05-31T14:03:46.140Z,40
2018-05-31T14:04:45.616Z,40
2018-05-31T14:05:45.592Z,40